Black Butte, Oregon
Current Conditions -  °F | °C
As of 7:56 PM on Saturday 20 Dec 2014 (Local Time) from KRDM Reporting Station
Light Rain Light Rain  
Wind Chill: 40°   Ceiling: 7500
Heat Index: 47°   Visibility: 10mi
Dew Point: 42°   Wind: 18mph
Humidity: 83%   Direction: 190°S
Pressure: 29.74"   Gusts: 30mph
Location:  44.3095°N, 121.588°W
Report Text: KRDM 210356Z AUTO 19016G26KT 10SM -RA BKN075 OVC095 08/06 A2974 RMK AO2 PK WND 19026/0348 SLP071 P0001 T00830056
Loading
Personal Weather Stations






























Interactive Weather Map New forecast layout! Learn more

10-Day Weather Forecast

Advertisements
Track Severe Weather on mobile